KDMA/DMA METAR and TAF weather

Enter ICAO airport designator
Station Type Date Time Source
KDMA METAR 2022/09/26 08:56 UTC NOAA

KDMA 260856Z AUTO 08003KT 10SM CLR 24/11 A2997 RMK AO2 SLP101 T02430113 57006 $


Station Type Date Time Source
KDMA Decoded METAR 2022/09/26 08:56 UTC NOAA

Davis-Monthan Air Force Base, AZ, United States (KDMA) 32-10N 110-53W
Sep 26, 2022 - 04:56 AM EDT / 2022.09.26 0856 UTC
Wind: from the E (080 degrees) at 3 MPH (3 KT):0
Visibility: 10 mile(s):0
Sky conditions: clear
Temperature: 75.7 F (24.3 C)
Dew Point: 52.3 F (11.3 C)
Relative Humidity: 44%
Pressure (altimeter): 29.97 in. Hg (1014 hPa)
Pressure tendency: 0.02 inches (0.6 hPa) lower than three hours ago
ob: KDMA 260856Z AUTO 08003KT 10SM CLR 24/11 A2997 RMK AO2 SLP101 T02430113 57006
cycle: 9

Station Type Date Time Source
KDMA TAF 2022/09/26 06:54 UTC NOAA

TAF TAF KDMA 260600Z 2606/2712 14009KT 9999 FEW120 QNH2997INS
BECMG 2616/2617 12010G20KT 9999 SCT100 QNH2996INS
BECMG 2621/2622 16010G15KT 9999 SCT100 QNH2993INS
TEMPO 2622/2624 -SHRA BKN090
BECMG 2704/2705 14012KT 9999 SCT100 QNH2999INS TX35/2621Z TN21/2613Z

Example: see airport list